SBOSBO TAB / TTCP
Speedbird OnlineSpeedbird Online TAB / TTCP

Tobago-Crown Point Airport
03:06 27.9°C

Location Scarborough, Trinidad and Tobago
Latitude: 11.149700164794922
Longitude: -60.83219909667969
Web Wikipedia
Altitude 12 Meter / 38 Feet
Distance 7,049 KM / 4,380 Miles
from London.
Time Zone UTC -4 hours (America/Port_of_Spain)
Codes IATA: TAB
ICAO: TTCP
Currency £1 equals TTD 7.67
Runways
RunwayLength (m)Surface
112744Asphalt
292744Asphalt
Radio
TypeDescriptionFrequency
APPPIARCO APP119
GNDGND121.7
TWRTWR118.4
Live ATC
METAR TTCP 060300Z 18014G26KT 2000 +SHRA SCT008CB BKN012 24/24 Q1011 NOSIG RMK CB OVRHD N E SE VCSH-ALQDS
TAF TAF TTCP 052200Z 0600/0624 08005KT 9999 FEW016 SCT036 TEMPO 0600/0607 10015G25KT 2000 TSRA SCT010CB BKN014 FM061400 11012KT 9999 FEW018 TEMPO 0614/0618 10015G25KT 2000 TSRA SCT010CB BKN015
Weather As Of 06 Oct 2022 03:06
Description Overcast clouds
Wind 30 km/h from East (109°)
Cloud Cover 100%
Precipitation Rain: none, Snow: none
Sunrise 05:52
Sunset 17:50
Rotations During the last 90 days there were
10 flights from ANU
12 flights to ANU


© 2017-2022 Speedbird Online